createdAt,value
2023-06-17T00:05:07.166Z,74069.09
2023-06-17T00:15:14.140Z,74115.59
2023-06-17T00:25:16.495Z,74125.72
2023-06-17T00:35:21.940Z,74135.84
2023-06-17T00:45:24.280Z,74135.84
2023-06-17T00:55:29.505Z,74147.97
2023-06-17T01:05:32.222Z,74081.22
2023-06-17T01:15:36.956Z,74111.56
2023-06-17T01:25:39.524Z,74152.03
2023-06-17T01:36:22.714Z,74180.34
2023-06-17T01:46:28.572Z,74206.66
2023-06-17T01:56:31.068Z,74198.56
2023-06-17T02:06:39.056Z,74178.31
2023-06-17T02:16:45.828Z,74160.13
2023-06-17T02:26:50.802Z,74164.16
2023-06-17T02:36:53.003Z,74172.25
2023-06-17T02:46:58.182Z,74160.13
2023-06-17T02:57:06.063Z,74150.00
2023-06-17T03:07:08.760Z,74145.97
2023-06-17T03:17:13.369Z,74137.88
2023-06-17T03:27:16.278Z,74131.78
2023-06-17T03:37:24.167Z,74143.94
2023-06-17T03:47:30.993Z,74145.97
2023-06-17T03:57:38.889Z,74127.75
2023-06-17T04:07:44.736Z,74117.63
2023-06-17T04:17:50.132Z,74095.38
2023-06-17T04:27:55.027Z,74071.09
2023-06-17T04:38:04.281Z,74046.81
2023-06-17T04:48:07.692Z,74030.66
2023-06-17T04:58:13.330Z,74014.47
2023-06-17T05:08:26.576Z,73986.13
2023-06-17T05:18:28.906Z,73909.28
2023-06-17T05:28:37.704Z,73753.50
2023-06-17T05:38:44.388Z,73771.72
2023-06-17T05:48:51.441Z,73765.66
2023-06-17T05:58:56.562Z,73725.19
2023-06-17T06:09:06.452Z,73646.31
2023-06-17T06:19:11.091Z,73516.84
2023-06-17T06:29:17.992Z,73435.94
2023-06-17T06:39:24.140Z,73351.00
2023-06-17T06:49:29.113Z,73318.63
2023-06-17T06:59:35.580Z,73229.63
2023-06-17T07:09:37.984Z,73181.09
2023-06-17T07:19:40.540Z,73173.00
2023-06-17T07:29:45.484Z,73268.06
2023-06-17T07:39:48.394Z,73259.97
2023-06-17T07:49:50.873Z,73262.00
2023-06-17T07:59:55.606Z,73199.31
2023-06-17T08:09:58.024Z,73209.41
2023-06-17T08:20:01.451Z,73203.34
2023-06-17T08:30:10.178Z,73128.50
2023-06-17T08:40:15.228Z,72974.81
2023-06-17T08:50:17.738Z,72881.78
2023-06-17T09:00:20.727Z,72922.22
2023-06-17T09:10:23.627Z,72841.31
2023-06-17T09:20:28.293Z,72847.41
2023-06-17T09:30:38.069Z,72914.13
2023-06-17T09:40:42.888Z,72863.56
2023-06-17T09:50:45.369Z,72877.72
2023-06-17T10:00:48.234Z,72879.75
2023-06-17T10:10:52.718Z,72978.84
2023-06-17T10:20:55.952Z,73031.44
2023-06-17T10:30:59.420Z,73017.28
2023-06-17T10:41:07.466Z,73063.78
2023-06-17T10:51:12.576Z,73152.78
2023-06-17T11:01:15.309Z,73211.44
2023-06-17T11:11:18.460Z,73227.63
2023-06-17T11:21:26.164Z,73225.59
2023-06-17T11:31:39.864Z,73225.59
2023-06-17T11:41:44.223Z,73164.91
2023-06-17T11:51:50.485Z,73128.50
2023-06-17T12:01:54.543Z,73039.53
2023-06-17T12:12:04.313Z,72972.78
2023-06-17T12:22:21.981Z,72956.59
2023-06-17T12:32:25.133Z,72930.31
2023-06-17T12:42:29.803Z,72904.03
2023-06-17T12:52:35.763Z,72891.88
2023-06-17T13:02:40.652Z,72831.22
2023-06-17T13:12:47.591Z,72869.63
2023-06-17T13:23:01.331Z,72861.56
2023-06-17T13:33:03.713Z,72829.19
2023-06-17T13:43:06.650Z,72802.91
2023-06-17T13:53:12.393Z,72806.94
2023-06-17T14:03:17.572Z,72829.19
2023-06-17T14:13:23.694Z,72817.06
2023-06-17T14:23:26.118Z,72796.84
2023-06-17T14:33:38.400Z,72780.66
2023-06-17T14:43:54.056Z,72796.84
2023-06-17T14:54:04.366Z,72792.78
2023-06-17T15:04:13.530Z,72817.06
2023-06-17T15:14:18.803Z,72817.06
2023-06-17T15:24:31.272Z,72841.31
2023-06-17T15:34:34.757Z,72855.47
2023-06-17T15:44:39.561Z,72885.81
2023-06-17T15:54:46.893Z,72936.38
2023-06-17T16:04:55.308Z,72986.94
2023-06-17T16:15:02.755Z,73023.34
2023-06-17T16:25:08.582Z,73075.94
2023-06-17T16:35:13.410Z,73088.06
2023-06-17T16:45:15.928Z,73122.44
2023-06-17T16:55:22.922Z,73156.81
2023-06-17T17:05:25.591Z,73177.06
2023-06-17T17:15:29.572Z,73203.34
2023-06-17T17:25:35.964Z,73229.63
2023-06-17T17:35:40.775Z,73235.72
2023-06-17T17:45:44.496Z,73249.88
2023-06-17T17:55:49.501Z,73257.94
2023-06-17T18:05:52.130Z,73264.03
2023-06-17T18:15:54.636Z,73294.34
2023-06-17T18:25:57.594Z,73298.41
2023-06-17T18:36:08.011Z,73320.66
2023-06-17T18:46:48.012Z,73334.81
2023-06-17T19:07:23.719Z,73346.94
2023-06-17T19:17:26.904Z,73359.09
2023-06-17T19:27:35.897Z,73371.22
2023-06-17T19:37:48.457Z,73391.44
2023-06-17T19:47:51.110Z,73391.44
2023-06-17T19:57:58.172Z,73405.59
2023-06-17T20:08:02.843Z,73395.50
2023-06-17T20:18:05.521Z,73399.53
2023-06-17T20:28:08.022Z,73409.66
2023-06-17T20:38:14.105Z,73407.63
2023-06-17T20:48:38.736Z,73421.78
2023-06-17T20:58:48.148Z,73429.88
2023-06-17T21:08:50.461Z,73419.75
2023-06-17T21:18:52.865Z,73433.91
2023-06-17T21:29:03.956Z,73431.91
2023-06-17T21:39:06.634Z,73346.94
2023-06-17T21:49:16.116Z,73411.66
2023-06-17T21:59:22.336Z,73450.09
2023-06-17T22:09:29.304Z,73480.44
2023-06-17T22:19:34.165Z,73496.63
2023-06-17T22:29:42.153Z,73516.84
2023-06-17T22:39:46.654Z,73510.78
2023-06-17T22:49:48.997Z,73520.91
2023-06-17T22:59:51.340Z,73528.97
2023-06-17T23:09:58.169Z,73545.16
2023-06-17T23:20:01.385Z,73549.22
2023-06-17T23:30:05.404Z,73565.41
2023-06-17T23:40:11.257Z,73577.53
2023-06-17T23:50:13.558Z,73587.66
